sensor_id;sensor_type;location;lat;lon;timestamp;P1;durP1;ratioP1;P2;durP2;ratioP2
63120;SDS011;54478;48.684;20.114;2023-12-20T00:01:48;18.55;;;8.23;;
63120;SDS011;54478;48.684;20.114;2023-12-20T00:04:17;21.27;;;8.60;;
63120;SDS011;54478;48.684;20.114;2023-12-20T00:06:45;17.75;;;7.30;;
63120;SDS011;54478;48.684;20.114;2023-12-20T00:09:14;15.50;;;7.68;;
63120;SDS011;54478;48.684;20.114;2023-12-20T00:11:42;23.33;;;8.18;;
63120;SDS011;54478;48.684;20.114;2023-12-20T00:14:10;27.95;;;16.02;;
63120;SDS011;54478;48.684;20.114;2023-12-20T00:16:39;13.25;;;5.38;;
63120;SDS011;54478;48.684;20.114;2023-12-20T00:19:07;24.58;;;8.50;;
63120;SDS011;54478;48.684;20.114;2023-12-20T00:21:35;17.42;;;11.48;;
63120;SDS011;54478;48.684;20.114;2023-12-20T00:24:04;23.40;;;12.13;;
63120;SDS011;54478;48.684;20.114;2023-12-20T00:26:32;20.38;;;9.43;;
63120;SDS011;54478;48.684;20.114;2023-12-20T00:29:01;18.20;;;8.13;;
63120;SDS011;54478;48.684;20.114;2023-12-20T00:31:29;25.67;;;10.05;;
63120;SDS011;54478;48.684;20.114;2023-12-20T00:33:57;16.15;;;9.68;;
63120;SDS011;54478;48.684;20.114;2023-12-20T00:36:26;16.40;;;6.70;;
63120;SDS011;54478;48.684;20.114;2023-12-20T00:38:54;18.33;;;7.28;;
63120;SDS011;54478;48.684;20.114;2023-12-20T00:41:22;18.70;;;9.68;;
63120;SDS011;54478;48.684;20.114;2023-12-20T00:43:50;12.18;;;6.07;;
63120;SDS011;54478;48.684;20.114;2023-12-20T00:46:18;16.23;;;7.05;;
63120;SDS011;54478;48.684;20.114;2023-12-20T00:48:47;19.25;;;8.15;;
63120;SDS011;54478;48.684;20.114;2023-12-20T00:51:15;17.00;;;7.03;;
63120;SDS011;54478;48.684;20.114;2023-12-20T00:53:43;26.15;;;8.68;;
63120;SDS011;54478;48.684;20.114;2023-12-20T00:56:12;19.95;;;7.88;;
63120;SDS011;54478;48.684;20.114;2023-12-20T00:58:40;16.88;;;7.55;;
63120;SDS011;54478;48.684;20.114;2023-12-20T01:01:08;20.92;;;8.23;;
63120;SDS011;54478;48.684;20.114;2023-12-20T01:03:36;17.52;;;7.47;;
63120;SDS011;54478;48.684;20.114;2023-12-20T01:06:05;21.25;;;9.95;;
63120;SDS011;54478;48.684;20.114;2023-12-20T01:08:33;35.28;;;12.25;;
63120;SDS011;54478;48.684;20.114;2023-12-20T01:11:00;21.88;;;9.65;;
63120;SDS011;54478;48.684;20.114;2023-12-20T01:13:28;15.63;;;6.85;;
63120;SDS011;54478;48.684;20.114;2023-12-20T01:15:57;18.60;;;7.60;;
63120;SDS011;54478;48.684;20.114;2023-12-20T01:18:25;27.67;;;8.82;;
63120;SDS011;54478;48.684;20.114;2023-12-20T01:20:53;14.98;;;7.07;;
63120;SDS011;54478;48.684;20.114;2023-12-20T01:23:21;31.70;;;9.90;;
63120;SDS011;54478;48.684;20.114;2023-12-20T01:25:50;26.58;;;9.23;;
63120;SDS011;54478;48.684;20.114;2023-12-20T01:28:18;23.65;;;9.43;;
63120;SDS011;54478;48.684;20.114;2023-12-20T01:30:46;25.85;;;9.63;;
63120;SDS011;54478;48.684;20.114;2023-12-20T01:33:15;28.08;;;10.25;;
63120;SDS011;54478;48.684;20.114;2023-12-20T01:35:43;27.00;;;11.82;;
63120;SDS011;54478;48.684;20.114;2023-12-20T01:38:11;23.25;;;11.15;;
63120;SDS011;54478;48.684;20.114;2023-12-20T01:40:39;21.73;;;8.98;;
63120;SDS011;54478;48.684;20.114;2023-12-20T01:43:08;25.10;;;8.98;;
63120;SDS011;54478;48.684;20.114;2023-12-20T01:45:36;19.92;;;8.32;;
63120;SDS011;54478;48.684;20.114;2023-12-20T01:48:05;19.67;;;5.65;;
63120;SDS011;54478;48.684;20.114;2023-12-20T01:50:35;21.20;;;8.02;;
63120;SDS011;54478;48.684;20.114;2023-12-20T01:53:05;22.80;;;8.25;;
63120;SDS011;54478;48.684;20.114;2023-12-20T01:55:38;22.10;;;9.48;;
63120;SDS011;54478;48.684;20.114;2023-12-20T01:58:05;19.98;;;7.93;;
63120;SDS011;54478;48.684;20.114;2023-12-20T02:00:38;17.95;;;6.75;;
63120;SDS011;54478;48.684;20.114;2023-12-20T02:03:07;20.70;;;8.25;;
63120;SDS011;54478;48.684;20.114;2023-12-20T02:05:35;24.20;;;7.68;;
63120;SDS011;54478;48.684;20.114;2023-12-20T02:08:04;23.60;;;7.20;;
63120;SDS011;54478;48.684;20.114;2023-12-20T02:10:30;17.08;;;7.18;;
63120;SDS011;54478;48.684;20.114;2023-12-20T02:12:59;22.30;;;6.45;;
63120;SDS011;54478;48.684;20.114;2023-12-20T02:15:27;10.63;;;5.32;;
63120;SDS011;54478;48.684;20.114;2023-12-20T02:17:55;18.92;;;8.75;;
63120;SDS011;54478;48.684;20.114;2023-12-20T02:20:24;20.85;;;7.32;;
63120;SDS011;54478;48.684;20.114;2023-12-20T02:22:52;19.05;;;6.55;;
63120;SDS011;54478;48.684;20.114;2023-12-20T02:25:21;24.75;;;8.85;;
63120;SDS011;54478;48.684;20.114;2023-12-20T02:27:49;26.17;;;8.10;;
63120;SDS011;54478;48.684;20.114;2023-12-20T02:30:17;16.40;;;7.50;;
63120;SDS011;54478;48.684;20.114;2023-12-20T02:32:46;15.05;;;5.05;;
63120;SDS011;54478;48.684;20.114;2023-12-20T02:35:15;15.88;;;6.93;;
63120;SDS011;54478;48.684;20.114;2023-12-20T02:37:44;13.38;;;6.40;;
63120;SDS011;54478;48.684;20.114;2023-12-20T02:40:12;19.98;;;7.00;;
63120;SDS011;54478;48.684;20.114;2023-12-20T02:42:40;14.00;;;5.85;;
63120;SDS011;54478;48.684;20.114;2023-12-20T02:45:09;17.00;;;8.50;;
63120;SDS011;54478;48.684;20.114;2023-12-20T02:47:37;10.95;;;6.80;;
63120;SDS011;54478;48.684;20.114;2023-12-20T02:50:05;16.50;;;6.82;;
63120;SDS011;54478;48.684;20.114;2023-12-20T02:52:34;18.52;;;7.30;;
63120;SDS011;54478;48.684;20.114;2023-12-20T02:55:02;16.33;;;6.55;;
63120;SDS011;54478;48.684;20.114;2023-12-20T02:57:30;16.05;;;6.03;;
63120;SDS011;54478;48.684;20.114;2023-12-20T02:59:58;16.27;;;6.63;;
63120;SDS011;54478;48.684;20.114;2023-12-20T03:02:27;13.60;;;6.28;;
63120;SDS011;54478;48.684;20.114;2023-12-20T03:04:55;25.58;;;8.38;;
63120;SDS011;54478;48.684;20.114;2023-12-20T03:07:24;12.20;;;6.47;;
63120;SDS011;54478;48.684;20.114;2023-12-20T03:09:49;16.15;;;6.80;;
63120;SDS011;54478;48.684;20.114;2023-12-20T03:12:17;14.90;;;6.75;;
63120;SDS011;54478;48.684;20.114;2023-12-20T03:14:45;12.07;;;5.10;;
63120;SDS011;54478;48.684;20.114;2023-12-20T03:17:14;13.75;;;6.03;;
63120;SDS011;54478;48.684;20.114;2023-12-20T03:19:42;13.73;;;4.97;;
63120;SDS011;54478;48.684;20.114;2023-12-20T03:22:10;17.00;;;7.20;;
63120;SDS011;54478;48.684;20.114;2023-12-20T03:24:39;19.65;;;7.40;;
63120;SDS011;54478;48.684;20.114;2023-12-20T03:27:07;16.35;;;6.35;;
63120;SDS011;54478;48.684;20.114;2023-12-20T03:29:35;12.40;;;6.68;;
63120;SDS011;54478;48.684;20.114;2023-12-20T03:32:03;18.10;;;7.18;;
63120;SDS011;54478;48.684;20.114;2023-12-20T03:34:32;12.27;;;6.75;;
63120;SDS011;54478;48.684;20.114;2023-12-20T03:37:00;15.50;;;6.13;;
63120;SDS011;54478;48.684;20.114;2023-12-20T03:39:28;18.65;;;9.02;;
63120;SDS011;54478;48.684;20.114;2023-12-20T03:41:56;18.65;;;8.02;;
63120;SDS011;54478;48.684;20.114;2023-12-20T03:44:24;19.35;;;6.93;;
63120;SDS011;54478;48.684;20.114;2023-12-20T03:46:53;14.88;;;7.07;;
63120;SDS011;54478;48.684;20.114;2023-12-20T03:49:21;11.07;;;5.50;;
63120;SDS011;54478;48.684;20.114;2023-12-20T03:51:49;13.65;;;6.32;;
63120;SDS011;54478;48.684;20.114;2023-12-20T03:54:18;20.05;;;8.25;;
63120;SDS011;54478;48.684;20.114;2023-12-20T03:56:46;14.55;;;7.20;;
63120;SDS011;54478;48.684;20.114;2023-12-20T03:59:14;13.80;;;7.18;;
63120;SDS011;54478;48.684;20.114;2023-12-20T04:01:43;15.15;;;6.75;;
63120;SDS011;54478;48.684;20.114;2023-12-20T04:04:13;14.73;;;4.72;;
63120;SDS011;54478;48.684;20.114;2023-12-20T04:06:41;14.05;;;6.20;;
63120;SDS011;54478;48.684;20.114;2023-12-20T04:09:10;27.63;;;8.27;;
63120;SDS011;54478;48.684;20.114;2023-12-20T04:11:38;18.40;;;8.38;;
63120;SDS011;54478;48.684;20.114;2023-12-20T04:14:07;17.40;;;6.35;;
63120;SDS011;54478;48.684;20.114;2023-12-20T04:16:35;17.95;;;8.18;;
63120;SDS011;54478;48.684;20.114;2023-12-20T04:19:03;10.52;;;6.15;;
63120;SDS011;54478;48.684;20.114;2023-12-20T04:21:32;13.10;;;6.22;;
63120;SDS011;54478;48.684;20.114;2023-12-20T04:24:00;17.02;;;7.50;;
63120;SDS011;54478;48.684;20.114;2023-12-20T04:26:28;20.88;;;9.27;;
63120;SDS011;54478;48.684;20.114;2023-12-20T04:28:57;14.43;;;6.15;;
63120;SDS011;54478;48.684;20.114;2023-12-20T04:31:25;20.73;;;9.90;;
63120;SDS011;54478;48.684;20.114;2023-12-20T04:33:53;23.17;;;7.72;;
63120;SDS011;54478;48.684;20.114;2023-12-20T04:36:21;18.02;;;8.02;;
63120;SDS011;54478;48.684;20.114;2023-12-20T04:38:50;22.08;;;8.45;;
63120;SDS011;54478;48.684;20.114;2023-12-20T04:41:18;14.68;;;7.10;;
63120;SDS011;54478;48.684;20.114;2023-12-20T04:43:44;19.30;;;7.20;;
63120;SDS011;54478;48.684;20.114;2023-12-20T04:46:12;18.25;;;6.97;;
63120;SDS011;54478;48.684;20.114;2023-12-20T04:48:41;17.60;;;7.80;;
63120;SDS011;54478;48.684;20.114;2023-12-20T04:51:09;17.08;;;7.53;;
63120;SDS011;54478;48.684;20.114;2023-12-20T04:53:38;13.80;;;6.80;;
63120;SDS011;54478;48.684;20.114;2023-12-20T04:56:06;17.85;;;7.70;;
63120;SDS011;54478;48.684;20.114;2023-12-20T04:58:34;14.25;;;6.05;;
63120;SDS011;54478;48.684;20.114;2023-12-20T05:01:03;22.08;;;7.55;;
63120;SDS011;54478;48.684;20.114;2023-12-20T05:03:33;14.18;;;7.43;;
63120;SDS011;54478;48.684;20.114;2023-12-20T05:06:02;16.17;;;7.05;;
63120;SDS011;54478;48.684;20.114;2023-12-20T05:08:30;12.82;;;5.30;;
63120;SDS011;54478;48.684;20.114;2023-12-20T05:10:56;21.40;;;8.07;;
63120;SDS011;54478;48.684;20.114;2023-12-20T05:13:24;19.40;;;7.55;;
63120;SDS011;54478;48.684;20.114;2023-12-20T05:15:52;12.95;;;6.38;;
63120;SDS011;54478;48.684;20.114;2023-12-20T05:18:21;18.25;;;8.70;;
63120;SDS011;54478;48.684;20.114;2023-12-20T05:20:51;19.00;;;7.20;;
63120;SDS011;54478;48.684;20.114;2023-12-20T05:23:19;21.52;;;8.43;;
63120;SDS011;54478;48.684;20.114;2023-12-20T05:25:48;21.50;;;7.82;;
63120;SDS011;54478;48.684;20.114;2023-12-20T05:28:16;15.50;;;6.68;;
63120;SDS011;54478;48.684;20.114;2023-12-20T05:30:45;18.75;;;6.75;;
63120;SDS011;54478;48.684;20.114;2023-12-20T05:33:13;22.65;;;7.40;;
63120;SDS011;54478;48.684;20.114;2023-12-20T05:35:42;29.63;;;6.95;;
63120;SDS011;54478;48.684;20.114;2023-12-20T05:38:10;11.48;;;6.38;;
63120;SDS011;54478;48.684;20.114;2023-12-20T05:40:39;13.63;;;5.55;;
63120;SDS011;54478;48.684;20.114;2023-12-20T05:43:07;9.85;;;5.53;;
63120;SDS011;54478;48.684;20.114;2023-12-20T05:45:35;21.92;;;6.43;;
63120;SDS011;54478;48.684;20.114;2023-12-20T05:48:03;14.38;;;6.68;;
63120;SDS011;54478;48.684;20.114;2023-12-20T05:50:32;18.00;;;7.03;;
63120;SDS011;54478;48.684;20.114;2023-12-20T05:53:00;16.48;;;6.40;;
63120;SDS011;54478;48.684;20.114;2023-12-20T05:55:29;19.52;;;7.60;;
63120;SDS011;54478;48.684;20.114;2023-12-20T05:57:57;16.88;;;7.55;;
63120;SDS011;54478;48.684;20.114;2023-12-20T06:00:25;19.25;;;8.75;;
63120;SDS011;54478;48.684;20.114;2023-12-20T06:02:54;13.32;;;7.53;;
63120;SDS011;54478;48.684;20.114;2023-12-20T06:05:22;17.35;;;7.57;;
63120;SDS011;54478;48.684;20.114;2023-12-20T06:07:50;21.33;;;9.10;;
63120;SDS011;54478;48.684;20.114;2023-12-20T06:10:16;17.98;;;7.13;;
63120;SDS011;54478;48.684;20.114;2023-12-20T06:12:45;8.20;;;5.47;;
63120;SDS011;54478;48.684;20.114;2023-12-20T06:15:15;14.50;;;5.68;;
63120;SDS011;54478;48.684;20.114;2023-12-20T06:17:45;11.93;;;6.07;;
63120;SDS011;54478;48.684;20.114;2023-12-20T06:20:14;19.45;;;6.30;;
63120;SDS011;54478;48.684;20.114;2023-12-20T06:22:43;13.65;;;5.80;;
63120;SDS011;54478;48.684;20.114;2023-12-20T06:25:12;13.23;;;5.03;;
63120;SDS011;54478;48.684;20.114;2023-12-20T06:27:40;17.00;;;7.05;;
63120;SDS011;54478;48.684;20.114;2023-12-20T06:30:09;12.35;;;5.13;;
63120;SDS011;54478;48.684;20.114;2023-12-20T06:32:35;22.00;;;6.13;;
63120;SDS011;54478;48.684;20.114;2023-12-20T06:35:04;21.67;;;8.60;;
63120;SDS011;54478;48.684;20.114;2023-12-20T06:37:32;19.23;;;6.40;;
63120;SDS011;54478;48.684;20.114;2023-12-20T06:40:01;14.90;;;6.40;;
63120;SDS011;54478;48.684;20.114;2023-12-20T06:42:29;11.35;;;5.82;;
63120;SDS011;54478;48.684;20.114;2023-12-20T06:44:57;14.27;;;7.05;;
63120;SDS011;54478;48.684;20.114;2023-12-20T06:47:23;16.42;;;6.82;;
63120;SDS011;54478;48.684;20.114;2023-12-20T06:49:52;19.30;;;7.13;;
63120;SDS011;54478;48.684;20.114;2023-12-20T06:52:20;18.60;;;7.45;;
63120;SDS011;54478;48.684;20.114;2023-12-20T06:54:48;17.48;;;7.85;;
63120;SDS011;54478;48.684;20.114;2023-12-20T06:57:20;15.73;;;5.78;;
63120;SDS011;54478;48.684;20.114;2023-12-20T06:59:48;9.65;;;5.45;;
63120;SDS011;54478;48.684;20.114;2023-12-20T07:02:17;27.75;;;6.85;;
63120;SDS011;54478;48.684;20.114;2023-12-20T07:04:45;21.05;;;7.63;;
63120;SDS011;54478;48.684;20.114;2023-12-20T07:07:13;20.98;;;9.45;;
63120;SDS011;54478;48.684;20.114;2023-12-20T07:09:39;19.60;;;7.50;;
63120;SDS011;54478;48.684;20.114;2023-12-20T07:12:09;21.25;;;8.10;;
63120;SDS011;54478;48.684;20.114;2023-12-20T07:14:37;26.92;;;7.30;;
63120;SDS011;54478;48.684;20.114;2023-12-20T07:17:06;21.98;;;8.45;;
63120;SDS011;54478;48.684;20.114;2023-12-20T07:19:39;21.42;;;7.40;;
63120;SDS011;54478;48.684;20.114;2023-12-20T07:22:08;23.73;;;8.88;;
63120;SDS011;54478;48.684;20.114;2023-12-20T07:24:36;17.98;;;9.93;;
63120;SDS011;54478;48.684;20.114;2023-12-20T07:27:04;22.70;;;9.50;;
63120;SDS011;54478;48.684;20.114;2023-12-20T07:29:32;20.92;;;7.82;;
63120;SDS011;54478;48.684;20.114;2023-12-20T07:32:01;16.08;;;5.93;;
63120;SDS011;54478;48.684;20.114;2023-12-20T07:34:29;18.17;;;6.72;;
63120;SDS011;54478;48.684;20.114;2023-12-20T07:36:57;23.67;;;10.30;;
63120;SDS011;54478;48.684;20.114;2023-12-20T07:39:26;20.92;;;10.32;;
63120;SDS011;54478;48.684;20.114;2023-12-20T07:41:54;10.65;;;5.82;;
63120;SDS011;54478;48.684;20.114;2023-12-20T07:44:22;19.80;;;6.50;;
63120;SDS011;54478;48.684;20.114;2023-12-20T07:46:51;15.63;;;6.82;;
63120;SDS011;54478;48.684;20.114;2023-12-20T07:49:19;17.33;;;6.63;;
63120;SDS011;54478;48.684;20.114;2023-12-20T07:51:50;14.35;;;5.15;;
63120;SDS011;54478;48.684;20.114;2023-12-20T07:54:18;15.52;;;7.32;;
63120;SDS011;54478;48.684;20.114;2023-12-20T07:56:45;20.13;;;7.95;;
63120;SDS011;54478;48.684;20.114;2023-12-20T07:59:14;20.38;;;7.00;;
63120;SDS011;54478;48.684;20.114;2023-12-20T08:01:43;16.83;;;5.70;;
63120;SDS011;54478;48.684;20.114;2023-12-20T08:04:11;25.23;;;10.05;;
63120;SDS011;54478;48.684;20.114;2023-12-20T08:06:39;18.33;;;8.98;;
63120;SDS011;54478;48.684;20.114;2023-12-20T08:09:07;20.27;;;7.25;;
63120;SDS011;54478;48.684;20.114;2023-12-20T08:11:33;19.40;;;7.18;;
63120;SDS011;54478;48.684;20.114;2023-12-20T08:14:01;22.70;;;9.40;;
63120;SDS011;54478;48.684;20.114;2023-12-20T08:16:30;17.88;;;6.93;;
63120;SDS011;54478;48.684;20.114;2023-12-20T08:18:58;23.73;;;7.20;;
63120;SDS011;54478;48.684;20.114;2023-12-20T08:21:26;20.40;;;8.27;;
63120;SDS011;54478;48.684;20.114;2023-12-20T08:23:55;22.42;;;6.93;;
63120;SDS011;54478;48.684;20.114;2023-12-20T08:26:24;17.77;;;7.15;;
63120;SDS011;54478;48.684;20.114;2023-12-20T08:28:52;24.00;;;8.43;;
63120;SDS011;54478;48.684;20.114;2023-12-20T08:31:21;19.17;;;7.70;;
63120;SDS011;54478;48.684;20.114;2023-12-20T08:33:49;15.65;;;7.85;;
63120;SDS011;54478;48.684;20.114;2023-12-20T08:36:18;17.30;;;7.63;;
63120;SDS011;54478;48.684;20.114;2023-12-20T08:38:49;16.00;;;8.13;;
63120;SDS011;54478;48.684;20.114;2023-12-20T08:41:18;20.33;;;7.55;;
63120;SDS011;54478;48.684;20.114;2023-12-20T08:43:48;19.45;;;8.35;;
63120;SDS011;54478;48.684;20.114;2023-12-20T08:46:17;19.08;;;7.63;;
63120;SDS011;54478;48.684;20.114;2023-12-20T08:48:45;14.45;;;6.45;;
63120;SDS011;54478;48.684;20.114;2023-12-20T08:51:14;22.60;;;8.70;;
63120;SDS011;54478;48.684;20.114;2023-12-20T08:53:43;16.40;;;6.68;;
63120;SDS011;54478;48.684;20.114;2023-12-20T08:56:13;17.02;;;6.90;;
63120;SDS011;54478;48.684;20.114;2023-12-20T08:58:41;20.80;;;8.73;;
63120;SDS011;54478;48.684;20.114;2023-12-20T09:01:09;19.13;;;7.70;;
63120;SDS011;54478;48.684;20.114;2023-12-20T09:03:38;17.45;;;7.10;;
63120;SDS011;54478;48.684;20.114;2023-12-20T09:06:07;12.85;;;6.93;;
63120;SDS011;54478;48.684;20.114;2023-12-20T09:08:35;10.30;;;6.20;;
63120;SDS011;54478;48.684;20.114;2023-12-20T09:11:01;21.55;;;8.70;;
63120;SDS011;54478;48.684;20.114;2023-12-20T09:13:29;27.58;;;8.95;;
63120;SDS011;54478;48.684;20.114;2023-12-20T09:15:59;27.05;;;10.82;;
63120;SDS011;54478;48.684;20.114;2023-12-20T09:18:28;24.35;;;9.50;;
63120;SDS011;54478;48.684;20.114;2023-12-20T09:20:56;24.25;;;9.50;;
63120;SDS011;54478;48.684;20.114;2023-12-20T09:23:24;22.70;;;9.55;;
63120;SDS011;54478;48.684;20.114;2023-12-20T09:25:53;17.33;;;8.98;;
63120;SDS011;54478;48.684;20.114;2023-12-20T09:28:21;19.52;;;7.78;;
63120;SDS011;54478;48.684;20.114;2023-12-20T09:30:50;22.15;;;9.65;;
63120;SDS011;54478;48.684;20.114;2023-12-20T09:33:15;22.55;;;9.77;;
63120;SDS011;54478;48.684;20.114;2023-12-20T09:35:44;23.13;;;8.48;;
63120;SDS011;54478;48.684;20.114;2023-12-20T09:38:12;22.75;;;10.60;;
63120;SDS011;54478;48.684;20.114;2023-12-20T09:40:43;12.55;;;6.38;;
63120;SDS011;54478;48.684;20.114;2023-12-20T09:43:14;17.48;;;9.07;;
63120;SDS011;54478;48.684;20.114;2023-12-20T09:45:47;15.50;;;7.35;;
63120;SDS011;54478;48.684;20.114;2023-12-20T09:48:13;18.55;;;8.68;;
63120;SDS011;54478;48.684;20.114;2023-12-20T09:50:45;19.27;;;9.68;;
63120;SDS011;54478;48.684;20.114;2023-12-20T09:53:15;20.75;;;8.73;;
63120;SDS011;54478;48.684;20.114;2023-12-20T09:55:44;22.23;;;9.55;;
63120;SDS011;54478;48.684;20.114;2023-12-20T09:58:13;20.20;;;9.32;;
63120;SDS011;54478;48.684;20.114;2023-12-20T10:00:41;24.90;;;9.38;;
63120;SDS011;54478;48.684;20.114;2023-12-20T10:03:10;23.85;;;10.38;;
63120;SDS011;54478;48.684;20.114;2023-12-20T10:05:41;18.17;;;8.38;;
63120;SDS011;54478;48.684;20.114;2023-12-20T10:08:11;16.55;;;8.65;;
63120;SDS011;54478;48.684;20.114;2023-12-20T10:10:36;18.80;;;8.68;;
63120;SDS011;54478;48.684;20.114;2023-12-20T10:13:11;22.98;;;8.80;;
63120;SDS011;54478;48.684;20.114;2023-12-20T10:15:40;17.38;;;9.30;;
63120;SDS011;54478;48.684;20.114;2023-12-20T10:18:06;17.20;;;9.27;;
63120;SDS011;54478;48.684;20.114;2023-12-20T10:20:35;17.60;;;8.38;;
63120;SDS011;54478;48.684;20.114;2023-12-20T10:23:03;16.67;;;7.65;;
63120;SDS011;54478;48.684;20.114;2023-12-20T10:25:31;20.42;;;8.30;;
63120;SDS011;54478;48.684;20.114;2023-12-20T10:30:39;25.83;;;10.45;;
63120;SDS011;54478;48.684;20.114;2023-12-20T10:33:06;24.15;;;9.48;;
63120;SDS011;54478;48.684;20.114;2023-12-20T10:35:38;23.13;;;8.77;;
63120;SDS011;54478;48.684;20.114;2023-12-20T10:38:07;20.83;;;9.97;;
63120;SDS011;54478;48.684;20.114;2023-12-20T10:40:35;16.50;;;7.55;;
63120;SDS011;54478;48.684;20.114;2023-12-20T10:43:04;27.90;;;10.75;;
63120;SDS011;54478;48.684;20.114;2023-12-20T10:45:33;24.10;;;8.70;;
63120;SDS011;54478;48.684;20.114;2023-12-20T10:48:02;19.50;;;8.10;;
63120;SDS011;54478;48.684;20.114;2023-12-20T10:50:31;16.40;;;7.43;;
63120;SDS011;54478;48.684;20.114;2023-12-20T10:53:00;12.85;;;6.68;;
63120;SDS011;54478;48.684;20.114;2023-12-20T10:55:28;24.15;;;9.85;;
63120;SDS011;54478;48.684;20.114;2023-12-20T10:58:00;14.13;;;7.72;;
63120;SDS011;54478;48.684;20.114;2023-12-20T11:00:29;25.30;;;9.18;;
63120;SDS011;54478;48.684;20.114;2023-12-20T11:03:00;26.50;;;10.32;;
63120;SDS011;54478;48.684;20.114;2023-12-20T11:10:56;24.45;;;10.98;;
63120;SDS011;54478;48.684;20.114;2023-12-20T11:13:39;19.20;;;8.10;;
63120;SDS011;54478;48.684;20.114;2023-12-20T11:16:12;23.10;;;10.93;;
63120;SDS011;54478;48.684;20.114;2023-12-20T11:18:38;20.45;;;8.48;;
63120;SDS011;54478;48.684;20.114;2023-12-20T11:21:08;22.67;;;9.85;;
63120;SDS011;54478;48.684;20.114;2023-12-20T11:23:39;25.05;;;8.90;;
63120;SDS011;54478;48.684;20.114;2023-12-20T11:26:10;21.23;;;9.20;;
63120;SDS011;54478;48.684;20.114;2023-12-20T11:28:38;25.13;;;8.77;;
63120;SDS011;54478;48.684;20.114;2023-12-20T11:31:06;23.35;;;9.23;;
63120;SDS011;54478;48.684;20.114;2023-12-20T11:33:36;23.67;;;9.18;;
63120;SDS011;54478;48.684;20.114;2023-12-20T11:36:14;24.52;;;9.68;;
63120;SDS011;54478;48.684;20.114;2023-12-20T11:38:56;18.40;;;8.25;;
63120;SDS011;54478;48.684;20.114;2023-12-20T11:41:25;24.45;;;8.90;;
63120;SDS011;54478;48.684;20.114;2023-12-20T11:43:52;22.30;;;8.40;;
63120;SDS011;54478;48.684;20.114;2023-12-20T11:46:21;20.73;;;8.45;;
63120;SDS011;54478;48.684;20.114;2023-12-20T11:48:51;23.05;;;10.55;;
63120;SDS011;54478;48.684;20.114;2023-12-20T11:51:20;27.45;;;10.70;;
63120;SDS011;54478;48.684;20.114;2023-12-20T11:53:51;22.50;;;9.25;;
63120;SDS011;54478;48.684;20.114;2023-12-20T11:56:20;20.77;;;8.05;;
63120;SDS011;54478;48.684;20.114;2023-12-20T11:58:49;18.10;;;7.45;;
63120;SDS011;54478;48.684;20.114;2023-12-20T12:01:19;27.38;;;9.32;;
63120;SDS011;54478;48.684;20.114;2023-12-20T12:03:48;22.97;;;9.00;;
63120;SDS011;54478;48.684;20.114;2023-12-20T12:06:30;17.92;;;6.60;;
63120;SDS011;54478;48.684;20.114;2023-12-20T12:08:56;15.90;;;6.63;;
63120;SDS011;54478;48.684;20.114;2023-12-20T12:11:22;22.17;;;9.10;;
63120;SDS011;54478;48.684;20.114;2023-12-20T12:13:50;27.50;;;9.02;;
63120;SDS011;54478;48.684;20.114;2023-12-20T12:16:19;15.30;;;5.55;;
63120;SDS011;54478;48.684;20.114;2023-12-20T12:18:55;19.25;;;7.85;;
63120;SDS011;54478;48.684;20.114;2023-12-20T12:21:26;23.27;;;8.95;;
63120;SDS011;54478;48.684;20.114;2023-12-20T12:23:51;25.52;;;11.65;;
63120;SDS011;54478;48.684;20.114;2023-12-20T12:26:21;19.65;;;9.63;;
63120;SDS011;54478;48.684;20.114;2023-12-20T12:28:50;18.92;;;8.80;;
63120;SDS011;54478;48.684;20.114;2023-12-20T12:31:16;28.35;;;10.40;;
63120;SDS011;54478;48.684;20.114;2023-12-20T12:33:44;20.13;;;9.20;;
63120;SDS011;54478;48.684;20.114;2023-12-20T12:36:13;23.95;;;9.07;;
63120;SDS011;54478;48.684;20.114;2023-12-20T12:38:43;27.83;;;10.85;;
63120;SDS011;54478;48.684;20.114;2023-12-20T12:41:15;23.70;;;9.68;;
63120;SDS011;54478;48.684;20.114;2023-12-20T12:43:44;23.70;;;9.77;;
63120;SDS011;54478;48.684;20.114;2023-12-20T12:46:12;24.58;;;8.60;;
63120;SDS011;54478;48.684;20.114;2023-12-20T12:48:41;19.30;;;7.88;;
63120;SDS011;54478;48.684;20.114;2023-12-20T12:51:09;38.05;;;16.83;;
63120;SDS011;54478;48.684;20.114;2023-12-20T12:53:41;23.48;;;11.38;;
63120;SDS011;54478;48.684;20.114;2023-12-20T12:56:09;29.02;;;10.27;;
63120;SDS011;54478;48.684;20.114;2023-12-20T12:58:38;23.42;;;10.02;;
63120;SDS011;54478;48.684;20.114;2023-12-20T13:01:06;24.98;;;9.20;;
63120;SDS011;54478;48.684;20.114;2023-12-20T13:03:35;22.60;;;9.18;;
63120;SDS011;54478;48.684;20.114;2023-12-20T13:06:04;22.80;;;9.25;;
63120;SDS011;54478;48.684;20.114;2023-12-20T13:08:34;26.40;;;12.55;;
63120;SDS011;54478;48.684;20.114;2023-12-20T13:10:59;25.10;;;10.65;;
63120;SDS011;54478;48.684;20.114;2023-12-20T13:13:27;24.30;;;9.73;;
63120;SDS011;54478;48.684;20.114;2023-12-20T13:15:56;31.52;;;10.57;;
63120;SDS011;54478;48.684;20.114;2023-12-20T13:18:24;18.98;;;9.02;;
63120;SDS011;54478;48.684;20.114;2023-12-20T13:20:53;28.90;;;11.35;;
63120;SDS011;54478;48.684;20.114;2023-12-20T13:23:21;26.00;;;10.23;;
63120;SDS011;54478;48.684;20.114;2023-12-20T13:25:47;17.33;;;9.15;;
63120;SDS011;54478;48.684;20.114;2023-12-20T13:28:13;23.17;;;10.00;;
63120;SDS011;54478;48.684;20.114;2023-12-20T13:30:41;24.25;;;9.70;;
63120;SDS011;54478;48.684;20.114;2023-12-20T13:33:10;22.20;;;10.18;;
63120;SDS011;54478;48.684;20.114;2023-12-20T13:35:39;25.15;;;10.27;;
63120;SDS011;54478;48.684;20.114;2023-12-20T13:38:08;28.30;;;9.50;;
63120;SDS011;54478;48.684;20.114;2023-12-20T13:40:36;25.33;;;10.73;;
63120;SDS011;54478;48.684;20.114;2023-12-20T13:43:05;27.20;;;11.10;;
63120;SDS011;54478;48.684;20.114;2023-12-20T13:45:34;24.67;;;8.63;;
63120;SDS011;54478;48.684;20.114;2023-12-20T13:48:03;20.27;;;9.48;;
63120;SDS011;54478;48.684;20.114;2023-12-20T13:50:32;22.80;;;10.10;;
63120;SDS011;54478;48.684;20.114;2023-12-20T13:53:00;27.63;;;11.93;;
63120;SDS011;54478;48.684;20.114;2023-12-20T13:55:29;26.45;;;12.18;;
63120;SDS011;54478;48.684;20.114;2023-12-20T13:57:58;27.13;;;11.57;;
63120;SDS011;54478;48.684;20.114;2023-12-20T14:00:27;26.80;;;11.82;;
63120;SDS011;54478;48.684;20.114;2023-12-20T14:02:55;36.78;;;13.45;;
63120;SDS011;54478;48.684;20.114;2023-12-20T14:05:24;27.77;;;12.50;;
63120;SDS011;54478;48.684;20.114;2023-12-20T14:07:54;26.65;;;11.95;;
63120;SDS011;54478;48.684;20.114;2023-12-20T14:10:22;24.20;;;10.50;;
63120;SDS011;54478;48.684;20.114;2023-12-20T14:12:54;26.30;;;12.45;;
63120;SDS011;54478;48.684;20.114;2023-12-20T14:15:23;29.65;;;12.02;;
63120;SDS011;54478;48.684;20.114;2023-12-20T14:17:53;33.33;;;14.43;;
63120;SDS011;54478;48.684;20.114;2023-12-20T14:20:22;25.80;;;12.93;;
63120;SDS011;54478;48.684;20.114;2023-12-20T14:22:51;37.20;;;15.82;;
63120;SDS011;54478;48.684;20.114;2023-12-20T14:25:19;28.67;;;12.85;;
63120;SDS011;54478;48.684;20.114;2023-12-20T14:27:48;30.52;;;13.15;;
63120;SDS011;54478;48.684;20.114;2023-12-20T14:30:16;35.33;;;15.32;;
63120;SDS011;54478;48.684;20.114;2023-12-20T14:32:44;31.10;;;13.65;;
63120;SDS011;54478;48.684;20.114;2023-12-20T14:35:13;29.75;;;14.77;;